Macaubas, Brazil
Current Conditions -  °F | °C
As of 4:00 PM on Thursday 30 Oct 2014 (Local Time) from SBQV Reporting Station
Broken Clouds Broken Clouds  
Wind Chill: 75°   Ceiling: 8000
Heat Index: 75°   Visibility: 6mi
Dew Point: 64°   Wind: 8mph
Humidity: 69%   Direction: 40°NE
Pressure: 30.03"   Gusts: NA
Location:  13.02°S, 42.7°W
Report Text: SBQV 301900Z 04007KT 9999 FEW016 BKN080 24/18 Q1017
Loading
Personal Weather Stations






























Interactive Weather Map
Tropical Storm Tracking
New forecast layout! Learn more

10-Day Weather Forecast

Advertisements
Track Severe Weather on mobile